WUK831 LGAV-EGGW
Flight info
| Callsign | WUK831 |
|---|---|
| Flight time | 3h 35m |
| Altitude | 32000 |
| Route | KOR1N KOR UL53 ELVAS DCT TUMBO DCT OVVER DCT RODON DCT BIGLO DCT SOLGU DCT ZAG DCT PETOV DCT BAGSI DCT LAMSI L604 RUDNO DCT MAPOX L604 BIGGE DCT OTMEC DCT NOGRO M40 RINIS RINIS1N |
| Aircraft | A21N/M-SDE1E2E3FGIJ1J4RWXY/LB1 |
Departure
| Time | 2026-05-07 08:53 |
|---|---|
| Airport | Athens Eleftherios Venizelos International Airport (LGAV) |
Arrival
| Time | 2026-05-07 12:28 |
|---|---|
| Airport | London Luton Airport (EGGW) |
| Time | Latitude | Longitude | Altitude | Speed | Heading |
|---|---|---|---|---|---|
| 2026-05-07 08:25 | 37.93145 | 23.94369 | 307 ft | 0 kts | 217° |
| 2026-05-07 08:40 | 37.93162 | 23.94386 | 306 ft | 4 kts | 217° |
| 2026-05-07 08:40 | 37.93178 | 23.94402 | 307 ft | 4 kts | 210° |
| 2026-05-07 08:41 | 37.93201 | 23.94410 | 308 ft | 4 kts | 165° |
| 2026-05-07 08:41 | 37.93219 | 23.94396 | 308 ft | 1 kts | 126° |
| 2026-05-07 08:41 | 37.93219 | 23.94395 | 306 ft | 0 kts | 126° |
| 2026-05-07 08:45 | 37.93215 | 23.94402 | 306 ft | 3 kts | 126° |
| 2026-05-07 08:45 | 37.93198 | 23.94432 | 306 ft | 6 kts | 126° |
| 2026-05-07 08:45 | 37.93172 | 23.94477 | 306 ft | 7 kts | 126° |
| 2026-05-07 08:45 | 37.93140 | 23.94531 | 309 ft | 9 kts | 126° |
| 2026-05-07 08:46 | 37.93097 | 23.94604 | 308 ft | 12 kts | 126° |
| 2026-05-07 08:46 | 37.93061 | 23.94705 | 307 ft | 14 kts | 76° |
| 2026-05-07 08:46 | 37.93139 | 23.94795 | 307 ft | 17 kts | 37° |
| 2026-05-07 08:46 | 37.93238 | 23.94890 | 305 ft | 19 kts | 37° |
| 2026-05-07 08:47 | 37.93346 | 23.94993 | 304 ft | 20 kts | 37° |
| 2026-05-07 08:47 | 37.93458 | 23.95100 | 305 ft | 21 kts | 37° |
| 2026-05-07 08:47 | 37.93574 | 23.95210 | 305 ft | 21 kts | 37° |
| 2026-05-07 08:47 | 37.93695 | 23.95324 | 304 ft | 22 kts | 37° |
| 2026-05-07 08:48 | 37.93819 | 23.95441 | 304 ft | 23 kts | 37° |
| 2026-05-07 08:48 | 37.93947 | 23.95563 | 305 ft | 23 kts | 37° |
| 2026-05-07 08:48 | 37.94080 | 23.95688 | 303 ft | 24 kts | 37° |
| 2026-05-07 08:48 | 37.94217 | 23.95818 | 306 ft | 25 kts | 37° |
| 2026-05-07 08:49 | 37.94359 | 23.95952 | 305 ft | 26 kts | 37° |
| 2026-05-07 08:49 | 37.94506 | 23.96091 | 304 ft | 27 kts | 37° |
| 2026-05-07 08:49 | 37.94647 | 23.96225 | 305 ft | 26 kts | 37° |
| 2026-05-07 08:49 | 37.94792 | 23.96363 | 306 ft | 27 kts | 37° |
| 2026-05-07 08:50 | 37.94943 | 23.96505 | 307 ft | 27 kts | 37° |
| 2026-05-07 08:50 | 37.95091 | 23.96645 | 308 ft | 16 kts | 37° |
| 2026-05-07 08:50 | 37.95184 | 23.96734 | 310 ft | 17 kts | 37° |
| 2026-05-07 08:50 | 37.95282 | 23.96827 | 308 ft | 18 kts | 37° |
| 2026-05-07 08:51 | 37.95384 | 23.96924 | 308 ft | 19 kts | 48° |
| 2026-05-07 08:51 | 37.95318 | 23.97023 | 312 ft | 20 kts | 173° |
| 2026-05-07 08:51 | 37.95216 | 23.97044 | 315 ft | 10 kts | 198° |
| 2026-05-07 08:51 | 37.95194 | 23.97029 | 315 ft | 0 kts | 217° |
| 2026-05-07 08:52 | 37.95151 | 23.96987 | 315 ft | 32 kts | 217° |
| 2026-05-07 08:52 | 37.94766 | 23.96620 | 306 ft | 105 kts | 217° |
| 2026-05-07 08:52 | 37.94012 | 23.95904 | 287 ft | 162 kts | 216° |
| 2026-05-07 08:53 | 37.93032 | 23.94988 | 615 ft | 174 kts | 215° |
| 2026-05-07 08:53 | 37.92081 | 23.94097 | 1249 ft | 167 kts | 215° |
| 2026-05-07 08:53 | 37.91083 | 23.93322 | 1752 ft | 170 kts | 202° |
| 2026-05-07 08:53 | 37.89980 | 23.92721 | 2253 ft | 178 kts | 206° |
| 2026-05-07 08:54 | 37.88863 | 23.91909 | 2682 ft | 192 kts | 208° |
| 2026-05-07 08:54 | 37.87658 | 23.91067 | 3159 ft | 205 kts | 207° |
| 2026-05-07 08:54 | 37.86372 | 23.90187 | 3652 ft | 216 kts | 207° |
| 2026-05-07 08:54 | 37.84974 | 23.89247 | 4046 ft | 237 kts | 207° |
| 2026-05-07 08:55 | 37.83483 | 23.88253 | 4676 ft | 246 kts | 207° |
| 2026-05-07 08:55 | 37.81960 | 23.87225 | 5442 ft | 250 kts | 208° |
| 2026-05-07 08:55 | 37.80432 | 23.86118 | 6076 ft | 262 kts | 218° |
| 2026-05-07 08:55 | 37.79266 | 23.84342 | 6605 ft | 273 kts | 244° |
| 2026-05-07 08:56 | 37.78843 | 23.82004 | 7307 ft | 278 kts | 271° |
| 2026-05-07 08:56 | 37.79143 | 23.79553 | 8048 ft | 281 kts | 282° |
| 2026-05-07 08:56 | 37.79592 | 23.77137 | 8757 ft | 284 kts | 282° |
| 2026-05-07 08:56 | 37.80036 | 23.74723 | 9440 ft | 287 kts | 282° |
| 2026-05-07 08:57 | 37.80471 | 23.72249 | 10155 ft | 289 kts | 282° |
| 2026-05-07 08:57 | 37.80903 | 23.69711 | 10598 ft | 303 kts | 282° |
| 2026-05-07 08:57 | 37.81349 | 23.67033 | 10872 ft | 320 kts | 282° |
| 2026-05-07 08:57 | 37.81808 | 23.64231 | 11381 ft | 328 kts | 282° |
| 2026-05-07 08:58 | 37.82271 | 23.61391 | 12054 ft | 331 kts | 282° |
| 2026-05-07 08:58 | 37.82735 | 23.58536 | 12757 ft | 332 kts | 282° |
| 2026-05-07 08:58 | 37.83200 | 23.55667 | 13432 ft | 334 kts | 283° |
| 2026-05-07 08:58 | 37.83668 | 23.52774 | 14100 ft | 336 kts | 283° |
| 2026-05-07 08:59 | 37.84136 | 23.49865 | 14736 ft | 339 kts | 283° |
| 2026-05-07 08:59 | 37.84605 | 23.46932 | 15365 ft | 342 kts | 282° |
| 2026-05-07 08:59 | 37.85074 | 23.43973 | 15988 ft | 344 kts | 283° |
| 2026-05-07 08:59 | 37.85554 | 23.40995 | 16583 ft | 346 kts | 283° |
| 2026-05-07 09:00 | 37.86034 | 23.37998 | 17188 ft | 349 kts | 283° |
| 2026-05-07 09:00 | 37.86517 | 23.34980 | 17763 ft | 351 kts | 283° |
| 2026-05-07 09:00 | 37.87001 | 23.31940 | 18326 ft | 354 kts | 283° |
| 2026-05-07 09:00 | 37.87490 | 23.28878 | 18854 ft | 357 kts | 283° |
| 2026-05-07 09:01 | 37.87981 | 23.25790 | 19372 ft | 360 kts | 282° |
| 2026-05-07 09:01 | 37.88472 | 23.22672 | 19882 ft | 362 kts | 282° |
| 2026-05-07 09:01 | 37.88964 | 23.19532 | 20363 ft | 365 kts | 282° |
| 2026-05-07 09:01 | 37.89465 | 23.16368 | 20847 ft | 368 kts | 282° |
| 2026-05-07 09:02 | 37.89967 | 23.13184 | 21313 ft | 370 kts | 282° |
| 2026-05-07 09:02 | 37.90473 | 23.09975 | 21766 ft | 373 kts | 282° |
| 2026-05-07 09:02 | 37.90980 | 23.06742 | 22197 ft | 376 kts | 282° |
| 2026-05-07 09:02 | 37.91491 | 23.03485 | 22644 ft | 378 kts | 282° |
| 2026-05-07 09:03 | 37.92006 | 23.00206 | 23069 ft | 381 kts | 282° |
| 2026-05-07 09:03 | 37.92347 | 22.98021 | 23332 ft | 383 kts | 282° |
| 2026-05-07 09:03 | 37.92978 | 22.94736 | 23731 ft | 385 kts | 289° |
| 2026-05-07 09:03 | 37.94092 | 22.91648 | 24121 ft | 388 kts | 301° |
| 2026-05-07 09:04 | 37.95595 | 22.88800 | 24516 ft | 390 kts | 304° |
| 2026-05-07 09:04 | 37.97175 | 22.85994 | 24886 ft | 392 kts | 305° |
| 2026-05-07 09:04 | 37.98763 | 22.83165 | 25245 ft | 395 kts | 304° |
| 2026-05-07 09:04 | 38.00350 | 22.80311 | 25610 ft | 397 kts | 304° |
| 2026-05-07 09:05 | 38.01938 | 22.77434 | 25977 ft | 399 kts | 304° |
| 2026-05-07 09:05 | 38.03530 | 22.74542 | 26333 ft | 401 kts | 304° |
| 2026-05-07 09:05 | 38.05127 | 22.71628 | 26643 ft | 404 kts | 304° |
| 2026-05-07 09:05 | 38.06713 | 22.68733 | 26962 ft | 406 kts | 304° |
| 2026-05-07 09:06 | 38.08326 | 22.65785 | 27272 ft | 407 kts | 303° |
| 2026-05-07 09:06 | 38.09944 | 22.62837 | 27649 ft | 408 kts | 302° |
| 2026-05-07 09:06 | 38.11567 | 22.59873 | 27945 ft | 410 kts | 302° |
| 2026-05-07 09:06 | 38.13195 | 22.56895 | 28244 ft | 411 kts | 302° |
| 2026-05-07 09:07 | 38.14828 | 22.53904 | 28537 ft | 413 kts | 302° |
| 2026-05-07 09:07 | 38.16469 | 22.50897 | 28813 ft | 415 kts | 302° |
| 2026-05-07 09:07 | 38.18117 | 22.47875 | 29091 ft | 416 kts | 302° |
| 2026-05-07 09:07 | 38.19768 | 22.44845 | 29354 ft | 418 kts | 301° |
| 2026-05-07 09:08 | 38.21426 | 22.41798 | 29617 ft | 420 kts | 301° |
| 2026-05-07 09:08 | 38.23087 | 22.38741 | 29884 ft | 421 kts | 301° |
| 2026-05-07 09:08 | 38.24753 | 22.35672 | 30138 ft | 422 kts | 301° |
| 2026-05-07 09:08 | 38.26426 | 22.32588 | 30392 ft | 424 kts | 301° |
| 2026-05-07 09:09 | 38.28099 | 22.29500 | 30641 ft | 424 kts | 301° |
| 2026-05-07 09:09 | 38.29773 | 22.26410 | 30966 ft | 423 kts | 301° |
| 2026-05-07 09:09 | 38.31438 | 22.23339 | 31317 ft | 420 kts | 301° |
| 2026-05-07 09:09 | 38.33093 | 22.20281 | 31645 ft | 418 kts | 301° |
| 2026-05-07 09:10 | 38.34736 | 22.17238 | 31967 ft | 416 kts | 301° |
| 2026-05-07 09:10 | 38.36369 | 22.14207 | 32136 ft | 414 kts | 301° |
| 2026-05-07 09:10 | 38.39620 | 22.08171 | 32148 ft | 413 kts | 301° |
| 2026-05-07 09:11 | 38.42866 | 22.02130 | 32138 ft | 413 kts | 301° |
| 2026-05-07 09:11 | 38.46109 | 21.96087 | 32132 ft | 413 kts | 301° |
| 2026-05-07 09:12 | 38.49345 | 21.90038 | 32137 ft | 412 kts | 301° |
| 2026-05-07 09:12 | 38.52818 | 21.84201 | 32132 ft | 417 kts | 312° |
| 2026-05-07 09:13 | 38.57514 | 21.79738 | 32145 ft | 424 kts | 322° |
| 2026-05-07 09:13 | 38.62420 | 21.75560 | 32143 ft | 424 kts | 322° |
| 2026-05-07 09:14 | 38.67307 | 21.71344 | 32139 ft | 423 kts | 321° |
| 2026-05-07 09:14 | 38.72166 | 21.67099 | 32134 ft | 423 kts | 321° |
| 2026-05-07 09:15 | 38.77038 | 21.62849 | 32143 ft | 424 kts | 321° |
| 2026-05-07 09:15 | 38.81885 | 21.58621 | 32133 ft | 424 kts | 321° |
| 2026-05-07 09:16 | 38.86766 | 21.54355 | 32144 ft | 426 kts | 321° |
| 2026-05-07 09:16 | 38.91666 | 21.50084 | 32142 ft | 427 kts | 321° |
| 2026-05-07 09:17 | 38.96576 | 21.45782 | 32142 ft | 428 kts | 321° |
| 2026-05-07 09:17 | 39.01491 | 21.41476 | 32151 ft | 427 kts | 321° |
| 2026-05-07 09:18 | 39.06404 | 21.37157 | 32155 ft | 428 kts | 321° |
| 2026-05-07 09:18 | 39.11314 | 21.32827 | 32161 ft | 428 kts | 321° |
| 2026-05-07 09:19 | 39.16231 | 21.28494 | 32159 ft | 429 kts | 321° |
| 2026-05-07 09:19 | 39.21150 | 21.24138 | 32157 ft | 429 kts | 321° |
| 2026-05-07 09:20 | 39.26074 | 21.19773 | 32160 ft | 430 kts | 321° |
| 2026-05-07 09:20 | 39.31001 | 21.15392 | 32157 ft | 431 kts | 321° |
| 2026-05-07 09:21 | 39.35940 | 21.11010 | 32166 ft | 431 kts | 321° |
| 2026-05-07 09:21 | 39.40883 | 21.06614 | 32169 ft | 432 kts | 321° |
| 2026-05-07 09:22 | 39.45827 | 21.02195 | 32164 ft | 432 kts | 321° |
| 2026-05-07 09:22 | 39.50778 | 20.97774 | 32173 ft | 433 kts | 321° |
| 2026-05-07 09:23 | 39.55747 | 20.93346 | 32176 ft | 434 kts | 321° |
| 2026-05-07 09:23 | 39.60722 | 20.88890 | 32170 ft | 435 kts | 321° |
| 2026-05-07 09:24 | 39.65667 | 20.84444 | 32171 ft | 436 kts | 321° |
| 2026-05-07 09:24 | 39.70676 | 20.79886 | 32170 ft | 437 kts | 321° |
| 2026-05-07 09:25 | 39.75660 | 20.75425 | 32172 ft | 438 kts | 321° |
| 2026-05-07 09:25 | 39.80685 | 20.70910 | 32171 ft | 440 kts | 321° |
| 2026-05-07 09:26 | 39.85716 | 20.66364 | 32169 ft | 441 kts | 321° |
| 2026-05-07 09:26 | 39.90756 | 20.61788 | 32169 ft | 442 kts | 321° |
| 2026-05-07 09:27 | 39.95809 | 20.57203 | 32163 ft | 443 kts | 321° |
| 2026-05-07 09:28 | 40.03399 | 20.50255 | 32162 ft | 447 kts | 321° |
| 2026-05-07 09:28 | 40.08462 | 20.45539 | 32159 ft | 447 kts | 320° |
| 2026-05-07 09:29 | 40.13479 | 20.40722 | 32163 ft | 448 kts | 320° |
| 2026-05-07 09:29 | 40.18507 | 20.35917 | 32145 ft | 448 kts | 320° |
| 2026-05-07 09:30 | 40.23517 | 20.31079 | 32141 ft | 447 kts | 320° |
| 2026-05-07 09:30 | 40.28531 | 20.26237 | 32167 ft | 448 kts | 320° |
| 2026-05-07 09:31 | 40.33538 | 20.21379 | 32172 ft | 448 kts | 320° |
| 2026-05-07 09:31 | 40.38541 | 20.16515 | 32174 ft | 448 kts | 320° |
| 2026-05-07 09:32 | 40.43546 | 20.11646 | 32172 ft | 447 kts | 320° |
| 2026-05-07 09:32 | 40.48543 | 20.06771 | 32172 ft | 447 kts | 320° |
| 2026-05-07 09:33 | 40.53537 | 20.01888 | 32168 ft | 447 kts | 320° |
| 2026-05-07 09:33 | 40.58523 | 19.97009 | 32165 ft | 448 kts | 319° |
| 2026-05-07 09:34 | 40.63520 | 19.92113 | 32158 ft | 448 kts | 320° |
| 2026-05-07 09:34 | 40.68516 | 19.87204 | 32161 ft | 448 kts | 319° |
| 2026-05-07 09:35 | 40.73467 | 19.82322 | 32165 ft | 447 kts | 319° |
| 2026-05-07 09:35 | 40.78452 | 19.77397 | 32148 ft | 448 kts | 319° |
| 2026-05-07 09:36 | 40.83437 | 19.72477 | 32138 ft | 447 kts | 319° |
| 2026-05-07 09:36 | 40.88419 | 19.67550 | 32134 ft | 447 kts | 319° |
| 2026-05-07 09:37 | 40.93390 | 19.62601 | 32133 ft | 447 kts | 319° |
| 2026-05-07 09:37 | 40.98354 | 19.57643 | 32124 ft | 447 kts | 319° |
| 2026-05-07 09:38 | 41.03318 | 19.52677 | 32114 ft | 448 kts | 319° |
| 2026-05-07 09:38 | 41.08311 | 19.47742 | 32115 ft | 448 kts | 319° |
| 2026-05-07 09:39 | 41.13286 | 19.42779 | 32113 ft | 447 kts | 319° |
| 2026-05-07 09:39 | 41.18253 | 19.37798 | 32123 ft | 447 kts | 318° |
| 2026-05-07 09:40 | 41.23201 | 19.32786 | 32112 ft | 447 kts | 318° |
| 2026-05-07 09:40 | 41.28170 | 19.27805 | 32127 ft | 447 kts | 318° |
| 2026-05-07 09:41 | 41.33146 | 19.22811 | 32118 ft | 448 kts | 318° |
| 2026-05-07 09:41 | 41.38105 | 19.17784 | 32107 ft | 448 kts | 318° |
| 2026-05-07 09:42 | 41.43068 | 19.12753 | 32110 ft | 449 kts | 318° |
| 2026-05-07 09:42 | 41.48565 | 19.08713 | 32120 ft | 460 kts | 337° |
| 2026-05-07 09:43 | 41.54677 | 19.06110 | 32114 ft | 461 kts | 339° |
| 2026-05-07 09:43 | 41.60789 | 19.03505 | 32115 ft | 461 kts | 338° |
| 2026-05-07 09:44 | 41.66886 | 19.00840 | 32126 ft | 462 kts | 338° |
| 2026-05-07 09:44 | 41.72993 | 18.98172 | 32120 ft | 462 kts | 338° |
| 2026-05-07 09:45 | 41.79066 | 18.95522 | 32137 ft | 462 kts | 338° |
| 2026-05-07 09:45 | 41.85181 | 18.92830 | 32124 ft | 463 kts | 338° |
| 2026-05-07 09:46 | 41.91311 | 18.90134 | 32126 ft | 464 kts | 338° |
| 2026-05-07 09:46 | 41.97437 | 18.87437 | 32130 ft | 463 kts | 338° |
| 2026-05-07 09:47 | 42.03570 | 18.84743 | 32136 ft | 464 kts | 338° |
| 2026-05-07 09:47 | 42.09718 | 18.82042 | 32127 ft | 465 kts | 338° |
| 2026-05-07 09:48 | 42.15859 | 18.79316 | 32131 ft | 465 kts | 338° |
| 2026-05-07 09:48 | 42.22015 | 18.76620 | 32129 ft | 465 kts | 338° |
| 2026-05-07 09:49 | 42.28169 | 18.73908 | 32121 ft | 465 kts | 338° |
| 2026-05-07 09:49 | 42.34243 | 18.70975 | 32112 ft | 462 kts | 333° |
| 2026-05-07 09:50 | 42.40161 | 18.67581 | 32112 ft | 462 kts | 332° |
| 2026-05-07 09:50 | 42.46078 | 18.64178 | 32115 ft | 462 kts | 332° |
| 2026-05-07 09:51 | 42.51994 | 18.60769 | 32117 ft | 462 kts | 333° |
| 2026-05-07 09:51 | 42.57909 | 18.57355 | 32107 ft | 462 kts | 332° |
| 2026-05-07 09:52 | 42.62825 | 18.54516 | 32103 ft | 462 kts | 332° |
| 2026-05-07 09:52 | 42.68734 | 18.51091 | 32114 ft | 461 kts | 332° |
| 2026-05-07 09:53 | 42.74641 | 18.47665 | 32106 ft | 461 kts | 332° |
| 2026-05-07 09:53 | 42.80539 | 18.44239 | 32120 ft | 461 kts | 332° |
| 2026-05-07 09:54 | 42.86430 | 18.40790 | 32118 ft | 461 kts | 332° |
| 2026-05-07 09:54 | 42.92309 | 18.37326 | 32121 ft | 460 kts | 332° |
| 2026-05-07 09:55 | 42.98194 | 18.33893 | 32101 ft | 460 kts | 332° |
| 2026-05-07 09:55 | 43.04070 | 18.30450 | 32118 ft | 459 kts | 332° |
| 2026-05-07 09:56 | 43.09945 | 18.27017 | 32110 ft | 459 kts | 332° |
| 2026-05-07 09:56 | 43.15810 | 18.23575 | 32107 ft | 458 kts | 332° |
| 2026-05-07 09:57 | 43.21657 | 18.20125 | 32097 ft | 457 kts | 332° |
| 2026-05-07 09:57 | 43.27493 | 18.16676 | 32096 ft | 456 kts | 332° |
| 2026-05-07 09:58 | 43.33323 | 18.13220 | 32091 ft | 456 kts | 332° |
| 2026-05-07 09:58 | 43.39148 | 18.09763 | 32092 ft | 456 kts | 332° |
| 2026-05-07 09:59 | 43.44970 | 18.06299 | 32087 ft | 455 kts | 332° |
| 2026-05-07 09:59 | 43.50779 | 18.02833 | 32088 ft | 455 kts | 332° |
| 2026-05-07 10:00 | 43.56576 | 17.99341 | 32082 ft | 454 kts | 332° |
| 2026-05-07 10:00 | 43.62372 | 17.95865 | 32082 ft | 454 kts | 332° |
| 2026-05-07 10:01 | 43.68125 | 17.92395 | 32083 ft | 454 kts | 332° |
| 2026-05-07 10:01 | 43.73923 | 17.88904 | 32082 ft | 455 kts | 332° |
| 2026-05-07 10:02 | 43.79723 | 17.85429 | 32079 ft | 454 kts | 332° |
| 2026-05-07 10:02 | 43.85521 | 17.81954 | 32079 ft | 454 kts | 332° |
| 2026-05-07 10:03 | 43.91311 | 17.78457 | 32071 ft | 454 kts | 332° |
| 2026-05-07 10:03 | 43.97093 | 17.74948 | 32067 ft | 453 kts | 331° |
| 2026-05-07 10:04 | 44.02866 | 17.71396 | 32069 ft | 454 kts | 331° |
| 2026-05-07 10:04 | 44.08641 | 17.67859 | 32070 ft | 454 kts | 331° |
| 2026-05-07 10:05 | 44.14318 | 17.64073 | 32068 ft | 451 kts | 327° |
| 2026-05-07 10:05 | 44.19871 | 17.60006 | 32068 ft | 451 kts | 327° |
| 2026-05-07 10:06 | 44.25428 | 17.55939 | 32069 ft | 451 kts | 327° |
| 2026-05-07 10:06 | 44.30971 | 17.51839 | 32066 ft | 451 kts | 327° |
| 2026-05-07 10:07 | 44.36515 | 17.47740 | 32069 ft | 451 kts | 327° |
| 2026-05-07 10:07 | 44.42048 | 17.43625 | 32068 ft | 450 kts | 327° |
| 2026-05-07 10:08 | 44.47582 | 17.39505 | 32062 ft | 450 kts | 327° |
| 2026-05-07 10:08 | 44.53107 | 17.35375 | 32060 ft | 450 kts | 327° |
| 2026-05-07 10:09 | 44.58640 | 17.31244 | 32061 ft | 450 kts | 327° |
| 2026-05-07 10:09 | 44.64128 | 17.27133 | 32055 ft | 450 kts | 327° |
| 2026-05-07 10:10 | 44.69661 | 17.22979 | 32053 ft | 451 kts | 327° |
| 2026-05-07 10:10 | 44.75232 | 17.18793 | 32051 ft | 451 kts | 327° |
| 2026-05-07 10:11 | 44.80728 | 17.14649 | 32052 ft | 451 kts | 327° |
| 2026-05-07 10:11 | 44.86260 | 17.10468 | 32051 ft | 451 kts | 327° |
| 2026-05-07 10:12 | 44.91792 | 17.06279 | 32053 ft | 451 kts | 326° |
| 2026-05-07 10:12 | 44.97327 | 17.02075 | 32050 ft | 452 kts | 326° |
| 2026-05-07 10:13 | 45.02857 | 16.97865 | 32047 ft | 452 kts | 326° |
| 2026-05-07 10:13 | 45.08395 | 16.93644 | 32054 ft | 452 kts | 326° |
| 2026-05-07 10:14 | 45.13931 | 16.89409 | 32052 ft | 452 kts | 326° |
| 2026-05-07 10:14 | 45.19467 | 16.85174 | 32048 ft | 453 kts | 326° |
| 2026-05-07 10:15 | 45.25012 | 16.80923 | 32042 ft | 453 kts | 326° |
| 2026-05-07 10:15 | 45.30557 | 16.76657 | 32039 ft | 453 kts | 326° |
| 2026-05-07 10:16 | 45.36093 | 16.72384 | 32040 ft | 453 kts | 326° |
| 2026-05-07 10:16 | 45.41634 | 16.68092 | 32040 ft | 454 kts | 326° |
| 2026-05-07 10:17 | 45.47183 | 16.63798 | 32034 ft | 454 kts | 326° |
| 2026-05-07 10:17 | 45.52741 | 16.59488 | 32032 ft | 455 kts | 326° |
| 2026-05-07 10:18 | 45.58300 | 16.55170 | 32032 ft | 455 kts | 326° |
| 2026-05-07 10:18 | 45.63864 | 16.50828 | 32029 ft | 456 kts | 326° |
| 2026-05-07 10:19 | 45.69435 | 16.46472 | 32031 ft | 457 kts | 326° |
| 2026-05-07 10:19 | 45.75009 | 16.42106 | 32030 ft | 457 kts | 325° |
| 2026-05-07 10:20 | 45.80587 | 16.37726 | 32022 ft | 458 kts | 325° |
| 2026-05-07 10:20 | 45.86175 | 16.33331 | 32021 ft | 458 kts | 325° |
| 2026-05-07 10:21 | 45.91723 | 16.28950 | 32020 ft | 458 kts | 325° |
| 2026-05-07 10:21 | 45.97305 | 16.24518 | 32019 ft | 458 kts | 325° |
| 2026-05-07 10:22 | 46.02897 | 16.20080 | 32017 ft | 459 kts | 325° |
| 2026-05-07 10:22 | 46.08491 | 16.15628 | 32013 ft | 459 kts | 325° |
| 2026-05-07 10:23 | 46.14077 | 16.11161 | 32005 ft | 459 kts | 325° |
| 2026-05-07 10:23 | 46.19659 | 16.06691 | 31999 ft | 459 kts | 325° |
| 2026-05-07 10:24 | 46.25232 | 16.02193 | 31997 ft | 459 kts | 324° |
| 2026-05-07 10:24 | 46.30788 | 15.97662 | 31990 ft | 457 kts | 323° |
| 2026-05-07 10:25 | 46.36144 | 15.92741 | 31980 ft | 456 kts | 321° |
| 2026-05-07 10:25 | 46.41474 | 15.87762 | 31982 ft | 456 kts | 321° |
| 2026-05-07 10:26 | 46.46810 | 15.82778 | 31971 ft | 456 kts | 321° |
| 2026-05-07 10:26 | 46.52148 | 15.77794 | 31972 ft | 456 kts | 321° |
| 2026-05-07 10:27 | 46.57505 | 15.72837 | 31969 ft | 456 kts | 321° |
| 2026-05-07 10:27 | 46.62853 | 15.67843 | 31970 ft | 457 kts | 321° |
| 2026-05-07 10:28 | 46.68199 | 15.62817 | 31972 ft | 457 kts | 320° |
| 2026-05-07 10:28 | 46.73541 | 15.57784 | 31971 ft | 457 kts | 320° |
| 2026-05-07 10:29 | 46.78868 | 15.52724 | 31972 ft | 458 kts | 320° |
| 2026-05-07 10:29 | 46.84207 | 15.47663 | 31971 ft | 457 kts | 320° |
| 2026-05-07 10:30 | 46.92210 | 15.40024 | 31962 ft | 459 kts | 320° |
| 2026-05-07 10:30 | 46.97560 | 15.34924 | 31962 ft | 459 kts | 320° |
| 2026-05-07 10:31 | 47.02915 | 15.29828 | 31958 ft | 459 kts | 320° |
| 2026-05-07 10:31 | 47.08244 | 15.24674 | 31961 ft | 459 kts | 319° |
| 2026-05-07 10:32 | 47.13545 | 15.19555 | 31963 ft | 459 kts | 320° |
| 2026-05-07 10:32 | 47.18921 | 15.14381 | 31955 ft | 459 kts | 320° |
| 2026-05-07 10:33 | 47.24227 | 15.09256 | 31961 ft | 460 kts | 320° |
| 2026-05-07 10:33 | 47.29584 | 15.04094 | 31969 ft | 460 kts | 320° |
| 2026-05-07 10:34 | 47.34912 | 14.98905 | 31972 ft | 459 kts | 319° |
| 2026-05-07 10:34 | 47.40247 | 14.93717 | 31970 ft | 459 kts | 319° |
| 2026-05-07 10:35 | 47.45586 | 14.88523 | 31961 ft | 459 kts | 319° |
| 2026-05-07 10:35 | 47.50935 | 14.83335 | 31963 ft | 460 kts | 319° |
| 2026-05-07 10:36 | 47.56278 | 14.78118 | 31970 ft | 460 kts | 319° |
| 2026-05-07 10:36 | 47.61619 | 14.72874 | 31976 ft | 461 kts | 319° |
| 2026-05-07 10:37 | 47.66952 | 14.67620 | 31973 ft | 461 kts | 319° |
| 2026-05-07 10:37 | 47.72293 | 14.62322 | 31983 ft | 462 kts | 319° |
| 2026-05-07 10:38 | 47.77644 | 14.57029 | 31994 ft | 462 kts | 319° |
| 2026-05-07 10:38 | 47.82986 | 14.51708 | 32003 ft | 462 kts | 318° |
| 2026-05-07 10:39 | 47.87426 | 14.47281 | 32003 ft | 462 kts | 318° |
| 2026-05-07 10:39 | 47.92772 | 14.41947 | 32003 ft | 464 kts | 318° |
| 2026-05-07 10:40 | 47.98131 | 14.36593 | 32010 ft | 463 kts | 318° |
| 2026-05-07 10:40 | 48.03485 | 14.31236 | 32019 ft | 464 kts | 318° |
| 2026-05-07 10:41 | 48.08673 | 14.25608 | 32028 ft | 459 kts | 314° |
| 2026-05-07 10:41 | 48.13695 | 14.19725 | 32029 ft | 458 kts | 313° |
| 2026-05-07 10:42 | 48.18714 | 14.13827 | 32025 ft | 459 kts | 313° |
| 2026-05-07 10:42 | 48.23732 | 14.07917 | 32024 ft | 459 kts | 313° |
| 2026-05-07 10:43 | 48.28744 | 14.01999 | 32024 ft | 458 kts | 313° |
| 2026-05-07 10:43 | 48.33753 | 13.96071 | 32030 ft | 458 kts | 313° |
| 2026-05-07 10:44 | 48.38760 | 13.90135 | 32021 ft | 458 kts | 313° |
| 2026-05-07 10:44 | 48.43761 | 13.84172 | 32020 ft | 458 kts | 313° |
| 2026-05-07 10:45 | 48.48751 | 13.78206 | 32024 ft | 458 kts | 313° |
| 2026-05-07 10:45 | 48.53751 | 13.72244 | 32007 ft | 458 kts | 313° |
| 2026-05-07 10:46 | 48.58698 | 13.66282 | 31986 ft | 458 kts | 313° |
| 2026-05-07 10:46 | 48.63688 | 13.60294 | 31998 ft | 458 kts | 314° |
| 2026-05-07 10:47 | 48.68330 | 13.53837 | 32002 ft | 451 kts | 307° |
| 2026-05-07 10:47 | 48.72780 | 13.47128 | 31998 ft | 451 kts | 307° |
| 2026-05-07 10:48 | 48.77237 | 13.40442 | 32010 ft | 451 kts | 308° |
| 2026-05-07 10:48 | 48.81694 | 13.33736 | 32003 ft | 451 kts | 307° |
| 2026-05-07 10:49 | 48.86127 | 13.27008 | 31997 ft | 451 kts | 308° |
| 2026-05-07 10:49 | 48.90561 | 13.20283 | 32001 ft | 450 kts | 308° |
| 2026-05-07 10:50 | 48.95003 | 13.13532 | 31992 ft | 452 kts | 308° |
| 2026-05-07 10:50 | 48.99437 | 13.06770 | 31999 ft | 451 kts | 308° |
| 2026-05-07 10:51 | 49.03870 | 13.00002 | 31989 ft | 451 kts | 308° |
| 2026-05-07 10:51 | 49.08291 | 12.93223 | 31997 ft | 450 kts | 308° |
| 2026-05-07 10:52 | 49.12700 | 12.86433 | 31980 ft | 450 kts | 308° |
| 2026-05-07 10:52 | 49.17108 | 12.79630 | 31987 ft | 450 kts | 308° |
| 2026-05-07 10:53 | 49.21516 | 12.72836 | 31992 ft | 450 kts | 308° |
| 2026-05-07 10:53 | 49.25915 | 12.66038 | 31989 ft | 450 kts | 308° |
| 2026-05-07 10:54 | 49.30310 | 12.59221 | 31985 ft | 449 kts | 308° |
| 2026-05-07 10:54 | 49.34569 | 12.52248 | 31978 ft | 445 kts | 303° |
| 2026-05-07 10:55 | 49.38410 | 12.44813 | 31973 ft | 444 kts | 302° |
| 2026-05-07 10:55 | 49.42226 | 12.37360 | 31972 ft | 444 kts | 302° |
| 2026-05-07 10:56 | 49.46037 | 12.29897 | 31965 ft | 444 kts | 302° |
| 2026-05-07 10:56 | 49.49846 | 12.22441 | 31960 ft | 443 kts | 302° |
| 2026-05-07 10:57 | 49.53651 | 12.14977 | 31961 ft | 443 kts | 302° |
| 2026-05-07 10:57 | 49.57461 | 12.07519 | 31965 ft | 443 kts | 303° |
| 2026-05-07 10:58 | 49.61261 | 12.00044 | 31953 ft | 443 kts | 302° |
| 2026-05-07 10:58 | 49.65051 | 11.92554 | 31953 ft | 443 kts | 303° |
| 2026-05-07 10:59 | 49.68834 | 11.85056 | 31951 ft | 442 kts | 303° |
| 2026-05-07 10:59 | 49.72606 | 11.77538 | 31948 ft | 443 kts | 303° |
| 2026-05-07 11:00 | 49.76391 | 11.70031 | 31950 ft | 443 kts | 303° |
| 2026-05-07 11:00 | 49.80160 | 11.62500 | 31958 ft | 442 kts | 303° |
| 2026-05-07 11:01 | 49.83900 | 11.55012 | 31960 ft | 442 kts | 303° |
| 2026-05-07 11:01 | 49.87658 | 11.47465 | 31968 ft | 442 kts | 303° |
| 2026-05-07 11:02 | 49.91407 | 11.39908 | 31971 ft | 442 kts | 303° |
| 2026-05-07 11:02 | 49.95147 | 11.32350 | 31971 ft | 441 kts | 303° |
| 2026-05-07 11:03 | 49.98881 | 11.24782 | 31971 ft | 441 kts | 303° |
| 2026-05-07 11:03 | 50.02606 | 11.17208 | 31970 ft | 441 kts | 304° |
| 2026-05-07 11:04 | 50.06313 | 11.09620 | 31974 ft | 441 kts | 304° |
| 2026-05-07 11:04 | 50.10030 | 11.02035 | 31976 ft | 440 kts | 304° |
| 2026-05-07 11:05 | 50.13735 | 10.94447 | 31998 ft | 440 kts | 304° |
| 2026-05-07 11:05 | 50.17432 | 10.86844 | 32010 ft | 440 kts | 304° |
| 2026-05-07 11:06 | 50.21119 | 10.79238 | 32008 ft | 439 kts | 304° |
| 2026-05-07 11:06 | 50.24795 | 10.71618 | 32009 ft | 439 kts | 304° |
| 2026-05-07 11:07 | 50.28471 | 10.63994 | 32007 ft | 439 kts | 304° |
| 2026-05-07 11:07 | 50.32136 | 10.56366 | 32008 ft | 439 kts | 304° |
| 2026-05-07 11:08 | 50.35793 | 10.48738 | 32010 ft | 438 kts | 304° |
| 2026-05-07 11:08 | 50.39445 | 10.41082 | 32011 ft | 438 kts | 304° |
| 2026-05-07 11:09 | 50.43086 | 10.33430 | 32010 ft | 438 kts | 304° |
| 2026-05-07 11:09 | 50.46729 | 10.25766 | 32011 ft | 438 kts | 304° |
| 2026-05-07 11:10 | 50.50364 | 10.18095 | 32013 ft | 438 kts | 304° |
| 2026-05-07 11:10 | 50.53988 | 10.10416 | 32016 ft | 437 kts | 304° |
| 2026-05-07 11:11 | 50.57610 | 10.02737 | 32022 ft | 437 kts | 304° |
| 2026-05-07 11:11 | 50.61220 | 9.95049 | 32018 ft | 436 kts | 305° |
| 2026-05-07 11:12 | 50.64814 | 9.87362 | 32020 ft | 436 kts | 305° |
| 2026-05-07 11:12 | 50.68405 | 9.79669 | 32030 ft | 436 kts | 305° |
| 2026-05-07 11:13 | 50.71963 | 9.72014 | 32029 ft | 436 kts | 305° |
| 2026-05-07 11:13 | 50.75553 | 9.64303 | 32023 ft | 436 kts | 305° |
| 2026-05-07 11:14 | 50.79126 | 9.56577 | 32021 ft | 436 kts | 305° |
| 2026-05-07 11:14 | 50.82690 | 9.48842 | 32027 ft | 435 kts | 305° |
| 2026-05-07 11:15 | 50.86255 | 9.41101 | 32027 ft | 435 kts | 305° |
| 2026-05-07 11:15 | 50.89809 | 9.33353 | 32024 ft | 435 kts | 305° |
| 2026-05-07 11:16 | 50.93359 | 9.25580 | 32029 ft | 435 kts | 305° |
| 2026-05-07 11:16 | 50.96901 | 9.17802 | 32023 ft | 435 kts | 304° |
| 2026-05-07 11:17 | 51.00440 | 9.10023 | 32024 ft | 435 kts | 305° |
| 2026-05-07 11:17 | 51.03970 | 9.02236 | 32023 ft | 434 kts | 304° |
| 2026-05-07 11:18 | 51.07490 | 8.94430 | 32030 ft | 434 kts | 304° |
| 2026-05-07 11:18 | 51.11008 | 8.86627 | 32031 ft | 434 kts | 304° |
| 2026-05-07 11:19 | 51.14604 | 8.78909 | 32032 ft | 434 kts | 308° |
| 2026-05-07 11:19 | 51.18401 | 8.71428 | 32039 ft | 434 kts | 308° |
| 2026-05-07 11:20 | 51.22187 | 8.63935 | 32034 ft | 434 kts | 308° |
| 2026-05-07 11:20 | 51.25960 | 8.56432 | 32039 ft | 433 kts | 308° |
| 2026-05-07 11:21 | 51.29735 | 8.48916 | 32043 ft | 433 kts | 308° |
| 2026-05-07 11:21 | 51.33222 | 8.41081 | 32040 ft | 433 kts | 297° |
| 2026-05-07 11:22 | 51.35840 | 8.32423 | 32048 ft | 432 kts | 295° |
| 2026-05-07 11:22 | 51.38408 | 8.23716 | 32052 ft | 432 kts | 295° |
| 2026-05-07 11:23 | 51.40972 | 8.15077 | 32053 ft | 433 kts | 295° |
| 2026-05-07 11:23 | 51.43571 | 8.06377 | 32048 ft | 433 kts | 295° |
| 2026-05-07 11:24 | 51.46156 | 7.97654 | 32052 ft | 433 kts | 295° |
| 2026-05-07 11:24 | 51.48724 | 7.88931 | 32051 ft | 432 kts | 295° |
| 2026-05-07 11:25 | 51.51284 | 7.80192 | 32046 ft | 432 kts | 295° |
| 2026-05-07 11:25 | 51.53840 | 7.71456 | 32052 ft | 432 kts | 295° |
| 2026-05-07 11:26 | 51.55975 | 7.64123 | 32052 ft | 432 kts | 295° |
| 2026-05-07 11:26 | 51.58524 | 7.55376 | 32052 ft | 432 kts | 295° |
| 2026-05-07 11:27 | 51.61061 | 7.46615 | 32051 ft | 432 kts | 295° |
| 2026-05-07 11:27 | 51.63578 | 7.37901 | 32058 ft | 432 kts | 295° |
| 2026-05-07 11:28 | 51.66093 | 7.29125 | 32061 ft | 432 kts | 294° |
| 2026-05-07 11:28 | 51.68609 | 7.20345 | 32061 ft | 432 kts | 294° |
| 2026-05-07 11:29 | 51.71118 | 7.11553 | 32060 ft | 431 kts | 294° |
| 2026-05-07 11:29 | 51.73615 | 7.02761 | 32060 ft | 431 kts | 294° |
| 2026-05-07 11:30 | 51.76107 | 6.93972 | 32058 ft | 430 kts | 294° |
| 2026-05-07 11:30 | 51.78580 | 6.85175 | 32060 ft | 430 kts | 295° |
| 2026-05-07 11:31 | 51.81067 | 6.76376 | 32062 ft | 431 kts | 294° |
| 2026-05-07 11:31 | 51.83533 | 6.67560 | 32062 ft | 430 kts | 294° |
| 2026-05-07 11:32 | 51.87215 | 6.54328 | 32057 ft | 430 kts | 294° |
| 2026-05-07 11:33 | 51.89668 | 6.45493 | 32052 ft | 430 kts | 294° |
| 2026-05-07 11:33 | 51.92107 | 6.36648 | 32052 ft | 430 kts | 294° |
| 2026-05-07 11:34 | 51.94545 | 6.27802 | 32054 ft | 430 kts | 294° |
| 2026-05-07 11:34 | 51.96971 | 6.18942 | 32054 ft | 430 kts | 294° |
| 2026-05-07 11:35 | 51.99395 | 6.10072 | 32052 ft | 430 kts | 294° |
| 2026-05-07 11:35 | 52.01811 | 6.01192 | 32053 ft | 430 kts | 294° |
| 2026-05-07 11:36 | 52.04215 | 5.92309 | 32053 ft | 430 kts | 294° |
| 2026-05-07 11:36 | 52.06345 | 5.83244 | 32047 ft | 430 kts | 282° |
| 2026-05-07 11:36 | 52.06661 | 5.78419 | 32052 ft | 430 kts | 270° |
| 2026-05-07 11:37 | 52.06560 | 5.73561 | 32056 ft | 430 kts | 267° |
| 2026-05-07 11:37 | 52.06222 | 5.63852 | 32058 ft | 430 kts | 267° |
| 2026-05-07 11:38 | 52.05921 | 5.54139 | 32062 ft | 430 kts | 267° |
| 2026-05-07 11:38 | 52.05634 | 5.44426 | 32064 ft | 431 kts | 267° |
| 2026-05-07 11:39 | 52.05335 | 5.34717 | 32075 ft | 430 kts | 267° |
| 2026-05-07 11:39 | 52.05028 | 5.25005 | 32083 ft | 430 kts | 267° |
| 2026-05-07 11:40 | 52.04713 | 5.15303 | 32081 ft | 430 kts | 267° |
| 2026-05-07 11:40 | 52.04390 | 5.05607 | 32079 ft | 430 kts | 267° |
| 2026-05-07 11:41 | 52.04058 | 4.95915 | 32080 ft | 430 kts | 267° |
| 2026-05-07 11:41 | 52.03724 | 4.86233 | 32080 ft | 429 kts | 267° |
| 2026-05-07 11:42 | 52.03380 | 4.76562 | 32082 ft | 428 kts | 266° |
| 2026-05-07 11:42 | 52.03027 | 4.66908 | 32081 ft | 428 kts | 266° |
| 2026-05-07 11:43 | 52.02667 | 4.57278 | 32083 ft | 427 kts | 266° |
| 2026-05-07 11:43 | 52.02299 | 4.47663 | 32082 ft | 427 kts | 266° |
| 2026-05-07 11:44 | 52.01926 | 4.38122 | 32081 ft | 426 kts | 266° |
| 2026-05-07 11:44 | 52.01547 | 4.28526 | 32082 ft | 426 kts | 266° |
| 2026-05-07 11:45 | 52.01163 | 4.18937 | 32092 ft | 426 kts | 266° |
| 2026-05-07 11:45 | 52.00764 | 4.09348 | 32092 ft | 426 kts | 265° |
| 2026-05-07 11:46 | 52.00360 | 3.99759 | 32098 ft | 426 kts | 265° |
| 2026-05-07 11:46 | 51.99945 | 3.90174 | 32109 ft | 426 kts | 265° |
| 2026-05-07 11:47 | 51.99529 | 3.80594 | 32110 ft | 426 kts | 265° |
| 2026-05-07 11:47 | 51.99103 | 3.71013 | 32110 ft | 425 kts | 265° |
| 2026-05-07 11:48 | 51.98669 | 3.61438 | 32120 ft | 426 kts | 265° |
| 2026-05-07 11:48 | 51.98223 | 3.51855 | 32101 ft | 426 kts | 265° |
| 2026-05-07 11:49 | 51.97772 | 3.42272 | 32115 ft | 426 kts | 265° |
| 2026-05-07 11:49 | 51.97319 | 3.32783 | 32111 ft | 419 kts | 265° |
| 2026-05-07 11:50 | 51.96855 | 3.23266 | 32115 ft | 426 kts | 265° |
| 2026-05-07 11:50 | 51.96338 | 3.13791 | 31553 ft | 415 kts | 264° |
| 2026-05-07 11:50 | 51.96040 | 3.09158 | 31009 ft | 411 kts | 264° |
| 2026-05-07 11:51 | 51.95740 | 3.04579 | 30482 ft | 406 kts | 264° |
| 2026-05-07 11:51 | 51.95445 | 3.00055 | 29954 ft | 401 kts | 264° |
| 2026-05-07 11:51 | 51.95150 | 2.95578 | 29412 ft | 397 kts | 264° |
| 2026-05-07 11:51 | 51.94856 | 2.91146 | 28886 ft | 393 kts | 264° |
| 2026-05-07 11:52 | 51.94569 | 2.86820 | 28393 ft | 389 kts | 264° |
| 2026-05-07 11:52 | 51.94280 | 2.82496 | 27914 ft | 384 kts | 264° |
| 2026-05-07 11:52 | 51.93992 | 2.78215 | 27414 ft | 380 kts | 264° |
| 2026-05-07 11:52 | 51.93709 | 2.73989 | 26923 ft | 376 kts | 264° |
| 2026-05-07 11:53 | 51.93429 | 2.69805 | 26435 ft | 371 kts | 264° |
| 2026-05-07 11:53 | 51.93147 | 2.65671 | 25953 ft | 367 kts | 264° |
| 2026-05-07 11:53 | 51.92866 | 2.61582 | 25508 ft | 363 kts | 264° |
| 2026-05-07 11:53 | 51.92590 | 2.57544 | 25051 ft | 358 kts | 264° |
| 2026-05-07 11:54 | 51.92312 | 2.53553 | 24569 ft | 355 kts | 263° |
| 2026-05-07 11:54 | 51.92031 | 2.49593 | 24099 ft | 352 kts | 263° |
| 2026-05-07 11:54 | 51.91754 | 2.45671 | 23647 ft | 349 kts | 263° |
| 2026-05-07 11:54 | 51.91478 | 2.41776 | 23213 ft | 347 kts | 263° |
| 2026-05-07 11:55 | 51.91205 | 2.37904 | 22783 ft | 345 kts | 263° |
| 2026-05-07 11:55 | 51.90935 | 2.34056 | 22334 ft | 343 kts | 264° |
| 2026-05-07 11:55 | 51.90753 | 2.30216 | 21919 ft | 341 kts | 268° |
| 2026-05-07 11:55 | 51.90662 | 2.26396 | 21622 ft | 338 kts | 268° |
| 2026-05-07 11:56 | 51.90580 | 2.22600 | 21360 ft | 337 kts | 268° |
| 2026-05-07 11:56 | 51.90500 | 2.18813 | 21104 ft | 336 kts | 268° |
| 2026-05-07 11:56 | 51.90414 | 2.15044 | 20854 ft | 334 kts | 268° |
| 2026-05-07 11:56 | 51.90327 | 2.11301 | 20541 ft | 331 kts | 268° |
| 2026-05-07 11:57 | 51.90237 | 2.07591 | 20167 ft | 328 kts | 268° |
| 2026-05-07 11:57 | 51.90143 | 2.03918 | 19773 ft | 325 kts | 268° |
| 2026-05-07 11:57 | 51.90051 | 2.00276 | 19369 ft | 323 kts | 268° |
| 2026-05-07 11:57 | 51.89962 | 1.96648 | 18958 ft | 321 kts | 268° |
| 2026-05-07 11:58 | 51.89873 | 1.93044 | 18554 ft | 320 kts | 268° |
| 2026-05-07 11:58 | 51.90030 | 1.89480 | 18162 ft | 317 kts | 283° |
| 2026-05-07 11:58 | 51.90883 | 1.86229 | 17823 ft | 316 kts | 302° |
| 2026-05-07 11:58 | 51.92235 | 1.83408 | 17582 ft | 318 kts | 310° |
| 2026-05-07 11:59 | 51.93690 | 1.80717 | 17436 ft | 317 kts | 311° |
| 2026-05-07 11:59 | 51.95142 | 1.78034 | 17319 ft | 317 kts | 310° |
| 2026-05-07 11:59 | 51.96574 | 1.75329 | 17216 ft | 316 kts | 309° |
| 2026-05-07 11:59 | 51.97989 | 1.72603 | 17119 ft | 315 kts | 309° |
| 2026-05-07 12:00 | 51.99396 | 1.69876 | 17024 ft | 315 kts | 309° |
| 2026-05-07 12:00 | 52.00800 | 1.67154 | 16938 ft | 314 kts | 309° |
| 2026-05-07 12:00 | 52.02200 | 1.64433 | 16846 ft | 314 kts | 309° |
| 2026-05-07 12:00 | 52.03600 | 1.61712 | 16746 ft | 314 kts | 309° |
| 2026-05-07 12:01 | 52.05007 | 1.58997 | 16644 ft | 314 kts | 310° |
| 2026-05-07 12:01 | 52.06412 | 1.56282 | 16541 ft | 314 kts | 309° |
| 2026-05-07 12:01 | 52.07811 | 1.53566 | 16436 ft | 313 kts | 309° |
| 2026-05-07 12:01 | 52.09205 | 1.50850 | 16336 ft | 313 kts | 309° |
| 2026-05-07 12:02 | 52.10595 | 1.48134 | 16234 ft | 312 kts | 309° |
| 2026-05-07 12:02 | 52.11984 | 1.45417 | 16130 ft | 312 kts | 309° |
| 2026-05-07 12:02 | 52.13367 | 1.42706 | 16031 ft | 311 kts | 309° |
| 2026-05-07 12:02 | 52.14747 | 1.39998 | 15915 ft | 311 kts | 309° |
| 2026-05-07 12:03 | 52.15963 | 1.37107 | 15819 ft | 310 kts | 295° |
| 2026-05-07 12:03 | 52.16567 | 1.33753 | 15722 ft | 309 kts | 279° |
| 2026-05-07 12:03 | 52.16836 | 1.30284 | 15631 ft | 309 kts | 276° |
| 2026-05-07 12:03 | 52.17073 | 1.26807 | 15531 ft | 308 kts | 276° |
| 2026-05-07 12:04 | 52.17320 | 1.23343 | 15430 ft | 308 kts | 277° |
| 2026-05-07 12:04 | 52.17581 | 1.19877 | 15332 ft | 307 kts | 277° |
| 2026-05-07 12:04 | 52.17856 | 1.16427 | 15232 ft | 307 kts | 277° |
| 2026-05-07 12:04 | 52.18127 | 1.12980 | 15130 ft | 307 kts | 277° |
| 2026-05-07 12:05 | 52.18393 | 1.09540 | 15030 ft | 306 kts | 277° |
| 2026-05-07 12:05 | 52.18651 | 1.06096 | 14926 ft | 306 kts | 277° |
| 2026-05-07 12:05 | 52.18911 | 1.02664 | 14824 ft | 305 kts | 277° |
| 2026-05-07 12:05 | 52.19172 | 0.99229 | 14726 ft | 305 kts | 277° |
| 2026-05-07 12:06 | 52.19430 | 0.95846 | 14627 ft | 305 kts | 277° |
| 2026-05-07 12:06 | 52.19691 | 0.92415 | 14529 ft | 305 kts | 276° |
| 2026-05-07 12:06 | 52.19954 | 0.88982 | 14428 ft | 305 kts | 276° |
| 2026-05-07 12:06 | 52.20222 | 0.85513 | 14327 ft | 304 kts | 276° |
| 2026-05-07 12:07 | 52.20481 | 0.82141 | 14231 ft | 304 kts | 277° |
| 2026-05-07 12:07 | 52.20746 | 0.78715 | 14128 ft | 304 kts | 276° |
| 2026-05-07 12:07 | 52.21008 | 0.75296 | 14069 ft | 304 kts | 276° |
| 2026-05-07 12:07 | 52.21263 | 0.71876 | 14060 ft | 304 kts | 276° |
| 2026-05-07 12:08 | 52.21516 | 0.68460 | 14079 ft | 304 kts | 276° |
| 2026-05-07 12:08 | 52.21768 | 0.65038 | 14080 ft | 303 kts | 276° |
| 2026-05-07 12:08 | 52.22015 | 0.61654 | 13765 ft | 298 kts | 276° |
| 2026-05-07 12:08 | 52.22261 | 0.58320 | 13345 ft | 295 kts | 276° |
| 2026-05-07 12:09 | 52.22504 | 0.55008 | 12925 ft | 295 kts | 276° |
| 2026-05-07 12:09 | 52.22750 | 0.51674 | 12514 ft | 297 kts | 276° |
| 2026-05-07 12:09 | 52.22992 | 0.48312 | 12122 ft | 299 kts | 276° |
| 2026-05-07 12:09 | 52.23232 | 0.44962 | 11733 ft | 295 kts | 276° |
| 2026-05-07 12:10 | 52.23467 | 0.41664 | 11341 ft | 291 kts | 276° |
| 2026-05-07 12:10 | 52.23701 | 0.38376 | 10954 ft | 292 kts | 276° |
| 2026-05-07 12:10 | 52.23940 | 0.35081 | 10573 ft | 293 kts | 276° |
| 2026-05-07 12:10 | 52.24176 | 0.31805 | 10196 ft | 288 kts | 276° |
| 2026-05-07 12:11 | 52.24408 | 0.28580 | 9815 ft | 285 kts | 276° |
| 2026-05-07 12:11 | 52.24634 | 0.25370 | 9442 ft | 285 kts | 276° |
| 2026-05-07 12:11 | 52.24860 | 0.22158 | 9076 ft | 286 kts | 275° |
| 2026-05-07 12:11 | 52.24931 | 0.20023 | 8825 ft | 283 kts | 266° |
| 2026-05-07 12:12 | 52.24458 | 0.16966 | 8455 ft | 277 kts | 242° |
| 2026-05-07 12:12 | 52.23438 | 0.14331 | 8228 ft | 272 kts | 234° |
| 2026-05-07 12:12 | 52.22359 | 0.11850 | 8075 ft | 265 kts | 234° |
| 2026-05-07 12:12 | 52.21315 | 0.09423 | 7865 ft | 259 kts | 235° |
| 2026-05-07 12:13 | 52.20291 | 0.07020 | 7590 ft | 257 kts | 235° |
| 2026-05-07 12:13 | 52.19290 | 0.04643 | 7417 ft | 254 kts | 235° |
| 2026-05-07 12:13 | 52.18292 | 0.02272 | 7272 ft | 254 kts | 235° |
| 2026-05-07 12:13 | 52.17298 | -0.00100 | 7129 ft | 253 kts | 235° |
| 2026-05-07 12:14 | 52.16307 | -0.02467 | 6986 ft | 252 kts | 235° |
| 2026-05-07 12:14 | 52.15323 | -0.04822 | 6869 ft | 251 kts | 235° |
| 2026-05-07 12:14 | 52.14341 | -0.07168 | 6711 ft | 251 kts | 235° |
| 2026-05-07 12:14 | 52.13359 | -0.09510 | 6564 ft | 250 kts | 235° |
| 2026-05-07 12:15 | 52.12378 | -0.11847 | 6412 ft | 250 kts | 235° |
| 2026-05-07 12:15 | 52.11400 | -0.14177 | 6241 ft | 249 kts | 235° |
| 2026-05-07 12:15 | 52.10422 | -0.16495 | 6069 ft | 248 kts | 234° |
| 2026-05-07 12:15 | 52.09342 | -0.18679 | 5810 ft | 246 kts | 228° |
| 2026-05-07 12:16 | 52.08206 | -0.20755 | 5544 ft | 246 kts | 228° |
| 2026-05-07 12:16 | 52.07064 | -0.22827 | 5373 ft | 246 kts | 228° |
| 2026-05-07 12:16 | 52.05927 | -0.24898 | 5227 ft | 245 kts | 228° |
| 2026-05-07 12:16 | 52.04790 | -0.26964 | 5080 ft | 245 kts | 227° |
| 2026-05-07 12:17 | 52.03626 | -0.29074 | 4969 ft | 262 kts | 228° |
| 2026-05-07 12:17 | 52.02407 | -0.31287 | 4970 ft | 264 kts | 228° |
| 2026-05-07 12:17 | 52.01184 | -0.33513 | 4981 ft | 264 kts | 228° |
| 2026-05-07 12:17 | 51.99992 | -0.35783 | 4980 ft | 264 kts | 234° |
| 2026-05-07 12:18 | 51.99207 | -0.38469 | 4983 ft | 266 kts | 252° |
| 2026-05-07 12:18 | 51.98682 | -0.41349 | 4991 ft | 267 kts | 254° |
| 2026-05-07 12:18 | 51.98142 | -0.44232 | 4990 ft | 267 kts | 249° |
| 2026-05-07 12:18 | 51.97213 | -0.46827 | 4989 ft | 267 kts | 233° |
| 2026-05-07 12:19 | 51.96068 | -0.49193 | 4993 ft | 267 kts | 231° |
| 2026-05-07 12:19 | 51.94903 | -0.51548 | 4996 ft | 267 kts | 231° |
| 2026-05-07 12:19 | 51.93743 | -0.53902 | 4993 ft | 267 kts | 231° |
| 2026-05-07 12:19 | 51.92587 | -0.56263 | 4989 ft | 267 kts | 231° |
| 2026-05-07 12:20 | 51.91441 | -0.58609 | 4987 ft | 260 kts | 232° |
| 2026-05-07 12:20 | 51.90392 | -0.60871 | 4978 ft | 242 kts | 237° |
| 2026-05-07 12:20 | 51.89733 | -0.63315 | 4971 ft | 237 kts | 253° |
| 2026-05-07 12:20 | 51.89295 | -0.65884 | 4977 ft | 237 kts | 255° |
| 2026-05-07 12:21 | 51.88864 | -0.68456 | 4985 ft | 237 kts | 254° |
| 2026-05-07 12:21 | 51.88428 | -0.71022 | 4990 ft | 236 kts | 254° |
| 2026-05-07 12:21 | 51.87925 | -0.73549 | 4984 ft | 236 kts | 244° |
| 2026-05-07 12:21 | 51.86852 | -0.75489 | 4968 ft | 235 kts | 208° |
| 2026-05-07 12:22 | 51.85305 | -0.76093 | 4675 ft | 229 kts | 173° |
| 2026-05-07 12:22 | 51.83832 | -0.75302 | 4453 ft | 219 kts | 155° |
| 2026-05-07 12:22 | 51.82510 | -0.74212 | 4215 ft | 209 kts | 148° |
| 2026-05-07 12:22 | 51.81569 | -0.72502 | 3886 ft | 208 kts | 110° |
| 2026-05-07 12:23 | 51.81451 | -0.70207 | 3482 ft | 208 kts | 79° |
| 2026-05-07 12:23 | 51.81854 | -0.67972 | 3212 ft | 207 kts | 71° |
| 2026-05-07 12:23 | 51.82352 | -0.65797 | 3000 ft | 207 kts | 71° |
| 2026-05-07 12:23 | 51.82816 | -0.63617 | 2742 ft | 200 kts | 73° |
| 2026-05-07 12:24 | 51.83183 | -0.61565 | 2674 ft | 186 kts | 74° |
| 2026-05-07 12:24 | 51.83523 | -0.59628 | 2540 ft | 171 kts | 75° |
| 2026-05-07 12:24 | 51.83832 | -0.57844 | 2457 ft | 158 kts | 75° |
| 2026-05-07 12:24 | 51.84119 | -0.56183 | 2221 ft | 151 kts | 75° |
| 2026-05-07 12:25 | 51.84405 | -0.54536 | 2000 ft | 150 kts | 75° |
| 2026-05-07 12:25 | 51.84681 | -0.52939 | 1979 ft | 149 kts | 75° |
| 2026-05-07 12:25 | 51.84961 | -0.51323 | 1978 ft | 149 kts | 75° |
| 2026-05-07 12:25 | 51.85240 | -0.49706 | 1948 ft | 149 kts | 75° |
| 2026-05-07 12:26 | 51.85520 | -0.48088 | 1790 ft | 149 kts | 75° |
| 2026-05-07 12:26 | 51.85798 | -0.46479 | 1582 ft | 148 kts | 75° |
| 2026-05-07 12:26 | 51.86076 | -0.44873 | 1385 ft | 148 kts | 75° |
| 2026-05-07 12:26 | 51.86353 | -0.43271 | 1190 ft | 148 kts | 75° |
| 2026-05-07 12:27 | 51.86627 | -0.41673 | 930 ft | 147 kts | 75° |
| 2026-05-07 12:27 | 51.86906 | -0.40084 | 744 ft | 147 kts | 75° |
| 2026-05-07 12:27 | 51.87182 | -0.38496 | 573 ft | 146 kts | 75° |
| 2026-05-07 12:27 | 51.87437 | -0.37010 | 545 ft | 122 kts | 75° |
| 2026-05-07 12:28 | 51.87606 | -0.36025 | 530 ft | 62 kts | 75° |
| 2026-05-07 12:28 | 51.87680 | -0.35596 | 520 ft | 33 kts | 73° |
| 2026-05-07 12:28 | 51.87716 | -0.35433 | 521 ft | 1 kts | 65° |
| 2026-05-07 12:28 | 51.87701 | -0.35392 | 522 ft | 8 kts | 201° |
| 2026-05-07 12:29 | 51.87687 | -0.35499 | 521 ft | 12 kts | 262° |
| 2026-05-07 12:29 | 51.87654 | -0.35722 | 521 ft | 24 kts | 255° |
| 2026-05-07 12:29 | 51.87695 | -0.35927 | 532 ft | 12 kts | 348° |
| 2026-05-07 12:29 | 51.87777 | -0.36010 | 536 ft | 17 kts | 287° |
| 2026-05-07 12:30 | 51.87759 | -0.36213 | 537 ft | 20 kts | 256° |
| 2026-05-07 12:30 | 51.87721 | -0.36443 | 537 ft | 22 kts | 254° |
| 2026-05-07 12:30 | 51.87683 | -0.36654 | 538 ft | 16 kts | 254° |
| 2026-05-07 12:30 | 51.87654 | -0.36816 | 539 ft | 16 kts | 254° |
| 2026-05-07 12:31 | 51.87693 | -0.36961 | 539 ft | 17 kts | 343° |
| 2026-05-07 12:31 | 51.87805 | -0.37014 | 539 ft | 17 kts | 343° |
| 2026-05-07 12:31 | 51.87922 | -0.37075 | 539 ft | 18 kts | 342° |
| 2026-05-07 12:31 | 51.87998 | -0.37114 | 539 ft | 11 kts | 343° |
| 2026-05-07 12:32 | 51.88045 | -0.37201 | 539 ft | 12 kts | 255° |
| 2026-05-07 12:32 | 51.88018 | -0.37334 | 539 ft | 12 kts | 252° |
| 2026-05-07 12:32 | 51.87987 | -0.37394 | 539 ft | 6 kts | 176° |
| 2026-05-07 12:32 | 51.87959 | -0.37381 | 539 ft | 0 kts | 162° |
| 2026-05-07 12:33 | 51.87950 | -0.37376 | 539 ft | 0 kts | 162° |